sensor_id;sensor_type;location;lat;lon;timestamp;temperature;humidity
14409;DHT22;7289;50.706;4.992;2022-09-09T00:00:13;15.80;99.90
14409;DHT22;7289;50.706;4.992;2022-09-09T00:02:49;15.80;99.90
14409;DHT22;7289;50.706;4.992;2022-09-09T00:05:29;15.80;99.90
14409;DHT22;7289;50.706;4.992;2022-09-09T00:08:01;15.70;99.90
14409;DHT22;7289;50.706;4.992;2022-09-09T00:10:33;15.70;99.90
14409;DHT22;7289;50.706;4.992;2022-09-09T00:13:14;15.70;99.90
14409;DHT22;7289;50.706;4.992;2022-09-09T00:15:51;15.60;99.90
14409;DHT22;7289;50.706;4.992;2022-09-09T00:18:29;15.70;99.90
14409;DHT22;7289;50.706;4.992;2022-09-09T00:21:06;15.60;99.90
14409;DHT22;7289;50.706;4.992;2022-09-09T00:23:38;15.50;99.90
14409;DHT22;7289;50.706;4.992;2022-09-09T00:26:10;15.50;99.90
14409;DHT22;7289;50.706;4.992;2022-09-09T00:28:45;15.50;99.90
14409;DHT22;7289;50.706;4.992;2022-09-09T00:31:18;15.40;99.90
14409;DHT22;7289;50.706;4.992;2022-09-09T00:33:50;15.40;99.90
14409;DHT22;7289;50.706;4.992;2022-09-09T00:36:22;15.40;99.90
14409;DHT22;7289;50.706;4.992;2022-09-09T00:38:56;15.40;99.90
14409;DHT22;7289;50.706;4.992;2022-09-09T00:41:33;15.30;99.90
14409;DHT22;7289;50.706;4.992;2022-09-09T00:44:27;15.30;99.90
14409;DHT22;7289;50.706;4.992;2022-09-09T00:47:17;15.40;99.90
14409;DHT22;7289;50.706;4.992;2022-09-09T00:49:57;15.40;99.90
14409;DHT22;7289;50.706;4.992;2022-09-09T00:52:39;15.50;99.90
14409;DHT22;7289;50.706;4.992;2022-09-09T00:55:13;15.60;99.90
14409;DHT22;7289;50.706;4.992;2022-09-09T00:57:46;15.60;99.90
14409;DHT22;7289;50.706;4.992;2022-09-09T01:00:24;15.80;99.90
14409;DHT22;7289;50.706;4.992;2022-09-09T01:03:07;15.80;99.90
14409;DHT22;7289;50.706;4.992;2022-09-09T01:05:44;15.80;99.90
14409;DHT22;7289;50.706;4.992;2022-09-09T01:11:16;15.80;99.90
14409;DHT22;7289;50.706;4.992;2022-09-09T01:13:45;15.70;99.90
14409;DHT22;7289;50.706;4.992;2022-09-09T01:16:17;15.80;99.90
14409;DHT22;7289;50.706;4.992;2022-09-09T01:18:48;15.90;99.90
14409;DHT22;7289;50.706;4.992;2022-09-09T01:21:24;15.90;99.90
14409;DHT22;7289;50.706;4.992;2022-09-09T01:24:13;15.90;99.90
14409;DHT22;7289;50.706;4.992;2022-09-09T01:27:06;16.00;99.90
14409;DHT22;7289;50.706;4.992;2022-09-09T01:29:36;16.00;99.90
14409;DHT22;7289;50.706;4.992;2022-09-09T01:35:08;16.10;99.90
14409;DHT22;7289;50.706;4.992;2022-09-09T01:37:39;16.00;99.90
14409;DHT22;7289;50.706;4.992;2022-09-09T01:40:08;16.00;99.90
14409;DHT22;7289;50.706;4.992;2022-09-09T01:42:40;16.00;99.90
14409;DHT22;7289;50.706;4.992;2022-09-09T01:45:09;16.00;99.90
14409;DHT22;7289;50.706;4.992;2022-09-09T01:47:37;15.90;99.90
14409;DHT22;7289;50.706;4.992;2022-09-09T01:50:25;15.90;99.90
14409;DHT22;7289;50.706;4.992;2022-09-09T01:52:57;15.90;99.90
14409;DHT22;7289;50.706;4.992;2022-09-09T01:55:32;15.80;99.90
14409;DHT22;7289;50.706;4.992;2022-09-09T01:58:16;15.90;99.90
14409;DHT22;7289;50.706;4.992;2022-09-09T02:00:54;15.80;99.90
14409;DHT22;7289;50.706;4.992;2022-09-09T02:03:27;15.80;99.90
14409;DHT22;7289;50.706;4.992;2022-09-09T02:06:14;15.80;99.90
14409;DHT22;7289;50.706;4.992;2022-09-09T02:08:53;15.70;99.90
14409;DHT22;7289;50.706;4.992;2022-09-09T02:11:26;15.70;99.90
14409;DHT22;7289;50.706;4.992;2022-09-09T02:14:06;15.70;99.90
14409;DHT22;7289;50.706;4.992;2022-09-09T02:16:44;15.70;99.90
14409;DHT22;7289;50.706;4.992;2022-09-09T02:19:16;15.70;99.90
14409;DHT22;7289;50.706;4.992;2022-09-09T02:22:21;15.80;99.90
14409;DHT22;7289;50.706;4.992;2022-09-09T02:24:51;15.70;99.90
14409;DHT22;7289;50.706;4.992;2022-09-09T02:27:25;15.60;99.90
14409;DHT22;7289;50.706;4.992;2022-09-09T02:29:56;15.60;99.90
14409;DHT22;7289;50.706;4.992;2022-09-09T02:32:50;15.60;99.90
14409;DHT22;7289;50.706;4.992;2022-09-09T02:35:23;15.60;99.90
14409;DHT22;7289;50.706;4.992;2022-09-09T02:37:55;15.60;99.90
14409;DHT22;7289;50.706;4.992;2022-09-09T02:40:25;15.60;99.90
14409;DHT22;7289;50.706;4.992;2022-09-09T02:42:59;15.60;99.90
14409;DHT22;7289;50.706;4.992;2022-09-09T02:45:36;15.70;99.90
14409;DHT22;7289;50.706;4.992;2022-09-09T02:48:12;15.70;99.90
14409;DHT22;7289;50.706;4.992;2022-09-09T02:50:49;15.70;99.90
14409;DHT22;7289;50.706;4.992;2022-09-09T02:53:24;15.70;99.90
14409;DHT22;7289;50.706;4.992;2022-09-09T02:55:59;15.60;99.90
14409;DHT22;7289;50.706;4.992;2022-09-09T02:58:36;15.60;99.90
14409;DHT22;7289;50.706;4.992;2022-09-09T03:01:07;15.60;99.90
14409;DHT22;7289;50.706;4.992;2022-09-09T03:03:36;15.60;99.90
14409;DHT22;7289;50.706;4.992;2022-09-09T03:06:09;15.50;99.90
14409;DHT22;7289;50.706;4.992;2022-09-09T03:08:39;15.50;99.90
14409;DHT22;7289;50.706;4.992;2022-09-09T03:11:18;15.60;99.90
14409;DHT22;7289;50.706;4.992;2022-09-09T03:13:47;15.60;99.90
14409;DHT22;7289;50.706;4.992;2022-09-09T03:16:18;15.50;99.90
14409;DHT22;7289;50.706;4.992;2022-09-09T03:18:49;15.40;99.90
14409;DHT22;7289;50.706;4.992;2022-09-09T03:21:17;15.40;99.90
14409;DHT22;7289;50.706;4.992;2022-09-09T03:23:46;15.40;99.90
14409;DHT22;7289;50.706;4.992;2022-09-09T03:26:15;15.40;99.90
14409;DHT22;7289;50.706;4.992;2022-09-09T03:28:46;15.40;99.90
14409;DHT22;7289;50.706;4.992;2022-09-09T03:31:18;15.40;99.90
14409;DHT22;7289;50.706;4.992;2022-09-09T03:33:48;15.40;99.90
14409;DHT22;7289;50.706;4.992;2022-09-09T03:36:18;15.30;99.90
14409;DHT22;7289;50.706;4.992;2022-09-09T03:38:46;15.40;99.90
14409;DHT22;7289;50.706;4.992;2022-09-09T03:41:14;15.40;99.90
14409;DHT22;7289;50.706;4.992;2022-09-09T03:43:43;15.50;99.90
14409;DHT22;7289;50.706;4.992;2022-09-09T03:46:11;15.50;99.90
14409;DHT22;7289;50.706;4.992;2022-09-09T03:48:41;15.50;99.90
14409;DHT22;7289;50.706;4.992;2022-09-09T03:51:09;15.50;99.90
14409;DHT22;7289;50.706;4.992;2022-09-09T03:53:37;15.50;99.90
14409;DHT22;7289;50.706;4.992;2022-09-09T03:56:07;15.50;99.90
14409;DHT22;7289;50.706;4.992;2022-09-09T03:58:37;15.60;99.90
14409;DHT22;7289;50.706;4.992;2022-09-09T04:01:09;15.50;99.90
14409;DHT22;7289;50.706;4.992;2022-09-09T04:03:43;15.40;99.90
14409;DHT22;7289;50.706;4.992;2022-09-09T04:06:12;15.50;99.90
14409;DHT22;7289;50.706;4.992;2022-09-09T04:08:45;15.40;99.90
14409;DHT22;7289;50.706;4.992;2022-09-09T04:11:16;15.40;99.90
14409;DHT22;7289;50.706;4.992;2022-09-09T04:13:46;15.40;99.90
14409;DHT22;7289;50.706;4.992;2022-09-09T04:16:14;15.40;99.90
14409;DHT22;7289;50.706;4.992;2022-09-09T04:18:44;15.30;99.90
14409;DHT22;7289;50.706;4.992;2022-09-09T04:21:15;15.30;99.90
14409;DHT22;7289;50.706;4.992;2022-09-09T04:23:45;15.30;99.90
14409;DHT22;7289;50.706;4.992;2022-09-09T04:26:13;15.30;99.90
14409;DHT22;7289;50.706;4.992;2022-09-09T04:28:44;15.30;99.90
14409;DHT22;7289;50.706;4.992;2022-09-09T04:31:19;15.20;99.90
14409;DHT22;7289;50.706;4.992;2022-09-09T04:33:54;15.20;99.90
14409;DHT22;7289;50.706;4.992;2022-09-09T04:36:22;15.20;99.90
14409;DHT22;7289;50.706;4.992;2022-09-09T04:38:55;15.30;99.90
14409;DHT22;7289;50.706;4.992;2022-09-09T04:41:23;15.30;99.90
14409;DHT22;7289;50.706;4.992;2022-09-09T04:43:53;15.30;99.90
14409;DHT22;7289;50.706;4.992;2022-09-09T04:46:22;15.40;99.90
14409;DHT22;7289;50.706;4.992;2022-09-09T04:48:51;15.40;99.90
14409;DHT22;7289;50.706;4.992;2022-09-09T04:51:23;15.40;99.90
14409;DHT22;7289;50.706;4.992;2022-09-09T04:53:52;15.50;99.90
14409;DHT22;7289;50.706;4.992;2022-09-09T04:56:21;15.60;99.90
14409;DHT22;7289;50.706;4.992;2022-09-09T04:58:55;15.60;99.90
14409;DHT22;7289;50.706;4.992;2022-09-09T05:01:33;15.70;99.90
14409;DHT22;7289;50.706;4.992;2022-09-09T05:04:04;15.70;99.90
14409;DHT22;7289;50.706;4.992;2022-09-09T05:06:35;15.90;99.90
14409;DHT22;7289;50.706;4.992;2022-09-09T05:09:04;16.00;99.90
14409;DHT22;7289;50.706;4.992;2022-09-09T05:11:33;16.00;99.90
14409;DHT22;7289;50.706;4.992;2022-09-09T05:14:16;16.00;99.90
14409;DHT22;7289;50.706;4.992;2022-09-09T05:16:45;16.00;99.90
14409;DHT22;7289;50.706;4.992;2022-09-09T05:19:14;16.10;99.90
14409;DHT22;7289;50.706;4.992;2022-09-09T05:21:51;16.10;99.90
14409;DHT22;7289;50.706;4.992;2022-09-09T05:24:25;16.10;99.90
14409;DHT22;7289;50.706;4.992;2022-09-09T05:26:56;16.10;99.90
14409;DHT22;7289;50.706;4.992;2022-09-09T05:29:26;16.20;99.90
14409;DHT22;7289;50.706;4.992;2022-09-09T05:31:56;16.20;99.90
14409;DHT22;7289;50.706;4.992;2022-09-09T05:34:24;16.20;99.90
14409;DHT22;7289;50.706;4.992;2022-09-09T05:36:54;16.30;99.90
14409;DHT22;7289;50.706;4.992;2022-09-09T05:39:23;16.40;99.90
14409;DHT22;7289;50.706;4.992;2022-09-09T05:41:52;16.50;99.90
14409;DHT22;7289;50.706;4.992;2022-09-09T05:44:20;16.50;99.90
14409;DHT22;7289;50.706;4.992;2022-09-09T05:46:50;16.50;99.90
14409;DHT22;7289;50.706;4.992;2022-09-09T05:49:19;16.60;99.90
14409;DHT22;7289;50.706;4.992;2022-09-09T05:51:48;16.60;99.90
14409;DHT22;7289;50.706;4.992;2022-09-09T05:54:20;16.60;99.90
14409;DHT22;7289;50.706;4.992;2022-09-09T05:56:50;16.50;99.90
14409;DHT22;7289;50.706;4.992;2022-09-09T05:59:20;16.70;99.90
14409;DHT22;7289;50.706;4.992;2022-09-09T06:01:52;16.70;99.90
14409;DHT22;7289;50.706;4.992;2022-09-09T06:04:34;16.80;99.90
14409;DHT22;7289;50.706;4.992;2022-09-09T06:07:04;16.90;99.90
14409;DHT22;7289;50.706;4.992;2022-09-09T06:09:34;16.90;99.90
14409;DHT22;7289;50.706;4.992;2022-09-09T06:12:02;17.00;99.90
14409;DHT22;7289;50.706;4.992;2022-09-09T06:14:34;16.90;99.90
14409;DHT22;7289;50.706;4.992;2022-09-09T06:17:04;16.90;99.90
14409;DHT22;7289;50.706;4.992;2022-09-09T06:19:33;16.90;99.90
14409;DHT22;7289;50.706;4.992;2022-09-09T06:22:02;16.80;99.90
14409;DHT22;7289;50.706;4.992;2022-09-09T06:24:37;16.80;99.90
14409;DHT22;7289;50.706;4.992;2022-09-09T06:27:06;17.00;99.90
14409;DHT22;7289;50.706;4.992;2022-09-09T06:29:36;17.10;99.90
14409;DHT22;7289;50.706;4.992;2022-09-09T06:32:04;17.30;99.90
14409;DHT22;7289;50.706;4.992;2022-09-09T06:34:35;17.40;99.90
14409;DHT22;7289;50.706;4.992;2022-09-09T06:37:03;17.50;99.90
14409;DHT22;7289;50.706;4.992;2022-09-09T06:39:40;17.50;99.90
14409;DHT22;7289;50.706;4.992;2022-09-09T06:42:08;17.50;99.90
14409;DHT22;7289;50.706;4.992;2022-09-09T06:44:42;17.60;99.90
14409;DHT22;7289;50.706;4.992;2022-09-09T06:47:17;17.70;99.90
14409;DHT22;7289;50.706;4.992;2022-09-09T06:49:46;17.70;99.90
14409;DHT22;7289;50.706;4.992;2022-09-09T06:52:16;17.80;99.90
14409;DHT22;7289;50.706;4.992;2022-09-09T06:54:47;17.80;99.90
14409;DHT22;7289;50.706;4.992;2022-09-09T06:57:16;17.90;99.90
14409;DHT22;7289;50.706;4.992;2022-09-09T07:00:08;18.00;99.90
14409;DHT22;7289;50.706;4.992;2022-09-09T07:02:37;17.90;99.90
14409;DHT22;7289;50.706;4.992;2022-09-09T07:05:08;17.90;99.90
14409;DHT22;7289;50.706;4.992;2022-09-09T07:07:38;17.90;99.90
14409;DHT22;7289;50.706;4.992;2022-09-09T07:10:09;18.00;99.90
14409;DHT22;7289;50.706;4.992;2022-09-09T07:12:37;18.20;99.90
14409;DHT22;7289;50.706;4.992;2022-09-09T07:15:09;18.30;99.90
14409;DHT22;7289;50.706;4.992;2022-09-09T07:17:41;18.50;99.90
14409;DHT22;7289;50.706;4.992;2022-09-09T07:20:09;18.70;99.90
14409;DHT22;7289;50.706;4.992;2022-09-09T07:22:38;18.80;99.90
14409;DHT22;7289;50.706;4.992;2022-09-09T07:25:09;18.90;99.90
14409;DHT22;7289;50.706;4.992;2022-09-09T07:27:38;19.20;99.90
14409;DHT22;7289;50.706;4.992;2022-09-09T07:30:10;19.40;99.90
14409;DHT22;7289;50.706;4.992;2022-09-09T07:32:47;19.20;99.90
14409;DHT22;7289;50.706;4.992;2022-09-09T07:35:15;19.10;99.90
14409;DHT22;7289;50.706;4.992;2022-09-09T07:37:43;19.10;99.90
14409;DHT22;7289;50.706;4.992;2022-09-09T07:40:19;19.10;99.60
14409;DHT22;7289;50.706;4.992;2022-09-09T07:42:49;19.30;99.80
14409;DHT22;7289;50.706;4.992;2022-09-09T07:45:17;19.20;99.80
14409;DHT22;7289;50.706;4.992;2022-09-09T07:47:46;19.00;99.90
14409;DHT22;7289;50.706;4.992;2022-09-09T07:50:15;18.90;99.90
14409;DHT22;7289;50.706;4.992;2022-09-09T07:52:44;18.80;99.90
14409;DHT22;7289;50.706;4.992;2022-09-09T07:55:13;18.90;99.90
14409;DHT22;7289;50.706;4.992;2022-09-09T07:57:43;18.80;99.90
14409;DHT22;7289;50.706;4.992;2022-09-09T08:00:13;18.80;99.90
14409;DHT22;7289;50.706;4.992;2022-09-09T08:02:48;18.70;99.90
14409;DHT22;7289;50.706;4.992;2022-09-09T08:05:16;18.70;99.90
14409;DHT22;7289;50.706;4.992;2022-09-09T08:07:45;18.70;99.90
14409;DHT22;7289;50.706;4.992;2022-09-09T08:10:14;18.70;99.90
14409;DHT22;7289;50.706;4.992;2022-09-09T08:12:46;18.80;99.90
14409;DHT22;7289;50.706;4.992;2022-09-09T08:15:36;18.80;99.90
14409;DHT22;7289;50.706;4.992;2022-09-09T08:18:04;18.90;99.90
14409;DHT22;7289;50.706;4.992;2022-09-09T08:20:35;19.00;99.90
14409;DHT22;7289;50.706;4.992;2022-09-09T08:23:03;19.00;99.90
14409;DHT22;7289;50.706;4.992;2022-09-09T08:25:33;19.00;99.90
14409;DHT22;7289;50.706;4.992;2022-09-09T08:28:03;19.00;99.90
14409;DHT22;7289;50.706;4.992;2022-09-09T08:30:32;19.00;99.90
14409;DHT22;7289;50.706;4.992;2022-09-09T08:33:00;18.90;99.90
14409;DHT22;7289;50.706;4.992;2022-09-09T08:35:29;18.90;99.90
14409;DHT22;7289;50.706;4.992;2022-09-09T08:37:59;18.80;99.90
14409;DHT22;7289;50.706;4.992;2022-09-09T08:40:35;18.80;99.90
14409;DHT22;7289;50.706;4.992;2022-09-09T08:43:09;18.70;99.90
14409;DHT22;7289;50.706;4.992;2022-09-09T08:45:46;18.80;99.90
14409;DHT22;7289;50.706;4.992;2022-09-09T08:48:27;18.90;99.90
14409;DHT22;7289;50.706;4.992;2022-09-09T08:50:59;19.10;99.90
14409;DHT22;7289;50.706;4.992;2022-09-09T08:53:39;19.20;99.90
14409;DHT22;7289;50.706;4.992;2022-09-09T08:56:13;19.20;99.80
14409;DHT22;7289;50.706;4.992;2022-09-09T08:58:48;19.30;99.90
14409;DHT22;7289;50.706;4.992;2022-09-09T09:01:40;19.40;99.90
14409;DHT22;7289;50.706;4.992;2022-09-09T09:04:32;19.80;99.90
14409;DHT22;7289;50.706;4.992;2022-09-09T09:07:09;20.10;99.60
14409;DHT22;7289;50.706;4.992;2022-09-09T09:09:48;20.50;98.80
14409;DHT22;7289;50.706;4.992;2022-09-09T09:12:22;20.70;97.80
14409;DHT22;7289;50.706;4.992;2022-09-09T09:14:55;20.70;97.20
14409;DHT22;7289;50.706;4.992;2022-09-09T09:17:26;20.50;97.20
14409;DHT22;7289;50.706;4.992;2022-09-09T09:19:57;20.50;97.20
14409;DHT22;7289;50.706;4.992;2022-09-09T09:22:32;20.50;97.10
14409;DHT22;7289;50.706;4.992;2022-09-09T09:25:13;20.60;97.30
14409;DHT22;7289;50.706;4.992;2022-09-09T09:27:52;20.60;97.10
14409;DHT22;7289;50.706;4.992;2022-09-09T09:30:26;20.70;97.00
14409;DHT22;7289;50.706;4.992;2022-09-09T09:33:06;20.60;96.60
14409;DHT22;7289;50.706;4.992;2022-09-09T09:35:37;20.50;96.70
14409;DHT22;7289;50.706;4.992;2022-09-09T09:38:16;20.40;96.90
14409;DHT22;7289;50.706;4.992;2022-09-09T09:41:07;20.40;97.20
14409;DHT22;7289;50.706;4.992;2022-09-09T09:43:37;20.30;97.20
14409;DHT22;7289;50.706;4.992;2022-09-09T09:46:20;20.10;97.80
14409;DHT22;7289;50.706;4.992;2022-09-09T09:48:57;19.90;97.70
14409;DHT22;7289;50.706;4.992;2022-09-09T09:51:28;19.80;98.50
14409;DHT22;7289;50.706;4.992;2022-09-09T09:54:08;19.50;99.20
14409;DHT22;7289;50.706;4.992;2022-09-09T09:56:38;19.30;99.90
14409;DHT22;7289;50.706;4.992;2022-09-09T09:59:20;19.10;99.90
14409;DHT22;7289;50.706;4.992;2022-09-09T10:02:16;18.80;99.90
14409;DHT22;7289;50.706;4.992;2022-09-09T10:04:48;18.60;99.90
14409;DHT22;7289;50.706;4.992;2022-09-09T10:07:19;18.70;99.90
14409;DHT22;7289;50.706;4.992;2022-09-09T10:09:52;18.60;99.90
14409;DHT22;7289;50.706;4.992;2022-09-09T10:12:31;18.70;99.90
14409;DHT22;7289;50.706;4.992;2022-09-09T10:15:07;18.90;99.90
14409;DHT22;7289;50.706;4.992;2022-09-09T10:17:49;19.30;99.90
14409;DHT22;7289;50.706;4.992;2022-09-09T10:20:31;19.80;99.90
14409;DHT22;7289;50.706;4.992;2022-09-09T10:23:10;20.20;99.90
14409;DHT22;7289;50.706;4.992;2022-09-09T10:25:56;20.50;99.90
14409;DHT22;7289;50.706;4.992;2022-09-09T10:28:42;20.70;99.90
14409;DHT22;7289;50.706;4.992;2022-09-09T10:31:27;20.60;99.60
14409;DHT22;7289;50.706;4.992;2022-09-09T10:34:10;20.70;99.40
14409;DHT22;7289;50.706;4.992;2022-09-09T10:36:46;20.70;99.90
14409;DHT22;7289;50.706;4.992;2022-09-09T10:39:25;20.70;99.50
14409;DHT22;7289;50.706;4.992;2022-09-09T10:42:05;20.70;99.40
14409;DHT22;7289;50.706;4.992;2022-09-09T10:44:56;20.80;99.00
14409;DHT22;7289;50.706;4.992;2022-09-09T10:47:50;21.00;99.30
14409;DHT22;7289;50.706;4.992;2022-09-09T10:50:35;21.20;99.60
14409;DHT22;7289;50.706;4.992;2022-09-09T10:53:35;21.40;98.20
14409;DHT22;7289;50.706;4.992;2022-09-09T10:56:08;21.50;98.70
14409;DHT22;7289;50.706;4.992;2022-09-09T10:58:41;21.70;98.50
14409;DHT22;7289;50.706;4.992;2022-09-09T11:01:16;21.80;98.00
14409;DHT22;7289;50.706;4.992;2022-09-09T11:03:51;21.90;97.60
14409;DHT22;7289;50.706;4.992;2022-09-09T11:06:25;21.70;96.90
14409;DHT22;7289;50.706;4.992;2022-09-09T11:08:58;21.80;97.30
14409;DHT22;7289;50.706;4.992;2022-09-09T11:11:33;21.80;96.90
14409;DHT22;7289;50.706;4.992;2022-09-09T11:14:09;21.70;96.90
14409;DHT22;7289;50.706;4.992;2022-09-09T11:16:42;21.70;96.50
14409;DHT22;7289;50.706;4.992;2022-09-09T11:19:20;21.70;96.90
14409;DHT22;7289;50.706;4.992;2022-09-09T11:21:54;21.70;97.30
14409;DHT22;7289;50.706;4.992;2022-09-09T11:24:29;21.60;97.10
14409;DHT22;7289;50.706;4.992;2022-09-09T11:27:03;21.60;97.00
14409;DHT22;7289;50.706;4.992;2022-09-09T11:35:38;21.10;97.80
14409;DHT22;7289;50.706;4.992;2022-09-09T11:38:26;20.80;98.80
14409;DHT22;7289;50.706;4.992;2022-09-09T11:40:57;20.70;99.30
14409;DHT22;7289;50.706;4.992;2022-09-09T11:43:30;20.40;99.70
14409;DHT22;7289;50.706;4.992;2022-09-09T11:46:01;20.00;99.90
14409;DHT22;7289;50.706;4.992;2022-09-09T11:48:33;19.70;99.90
14409;DHT22;7289;50.706;4.992;2022-09-09T11:51:05;19.60;99.90
14409;DHT22;7289;50.706;4.992;2022-09-09T11:53:50;19.30;99.90
14409;DHT22;7289;50.706;4.992;2022-09-09T11:56:25;19.10;99.90
14409;DHT22;7289;50.706;4.992;2022-09-09T11:59:00;19.20;99.90
14409;DHT22;7289;50.706;4.992;2022-09-09T12:01:41;19.40;99.90
14409;DHT22;7289;50.706;4.992;2022-09-09T12:04:17;19.60;99.90
14409;DHT22;7289;50.706;4.992;2022-09-09T12:06:51;19.90;99.90
14409;DHT22;7289;50.706;4.992;2022-09-09T12:09:27;20.50;99.90
14409;DHT22;7289;50.706;4.992;2022-09-09T12:12:21;21.00;99.90
14409;DHT22;7289;50.706;4.992;2022-09-09T12:15:02;21.50;99.90
14409;DHT22;7289;50.706;4.992;2022-09-09T12:17:45;21.60;99.90
14409;DHT22;7289;50.706;4.992;2022-09-09T12:20:16;21.70;99.90
14409;DHT22;7289;50.706;4.992;2022-09-09T12:22:52;21.60;99.80
14409;DHT22;7289;50.706;4.992;2022-09-09T12:25:32;21.50;99.90
14409;DHT22;7289;50.706;4.992;2022-09-09T12:28:09;21.30;99.90
14409;DHT22;7289;50.706;4.992;2022-09-09T12:30:49;21.20;99.90
14409;DHT22;7289;50.706;4.992;2022-09-09T12:33:21;21.20;99.90
14409;DHT22;7289;50.706;4.992;2022-09-09T12:35:54;21.10;99.90
14409;DHT22;7289;50.706;4.992;2022-09-09T12:38:29;21.10;99.90
14409;DHT22;7289;50.706;4.992;2022-09-09T12:41:01;21.20;99.90
14409;DHT22;7289;50.706;4.992;2022-09-09T12:43:29;21.10;99.80
14409;DHT22;7289;50.706;4.992;2022-09-09T12:46:00;21.10;99.80
14409;DHT22;7289;50.706;4.992;2022-09-09T12:48:36;21.10;99.90
14409;DHT22;7289;50.706;4.992;2022-09-09T12:51:18;21.30;99.90
14409;DHT22;7289;50.706;4.992;2022-09-09T12:53:47;21.40;99.90
14409;DHT22;7289;50.706;4.992;2022-09-09T12:56:23;21.50;99.70
14409;DHT22;7289;50.706;4.992;2022-09-09T12:58:55;21.50;99.70
14409;DHT22;7289;50.706;4.992;2022-09-09T13:01:26;21.50;99.60
14409;DHT22;7289;50.706;4.992;2022-09-09T13:03:56;21.20;99.20
14409;DHT22;7289;50.706;4.992;2022-09-09T13:06:26;21.20;99.60
14409;DHT22;7289;50.706;4.992;2022-09-09T13:08:57;21.10;99.60
14409;DHT22;7289;50.706;4.992;2022-09-09T13:11:30;21.10;99.90
14409;DHT22;7289;50.706;4.992;2022-09-09T13:13:59;21.00;99.90
14409;DHT22;7289;50.706;4.992;2022-09-09T13:16:30;21.00;99.00
14409;DHT22;7289;50.706;4.992;2022-09-09T13:19:08;21.00;99.60
14409;DHT22;7289;50.706;4.992;2022-09-09T13:21:38;21.00;99.90
14409;DHT22;7289;50.706;4.992;2022-09-09T13:24:27;21.10;99.90
14409;DHT22;7289;50.706;4.992;2022-09-09T13:26:59;21.30;99.80
14409;DHT22;7289;50.706;4.992;2022-09-09T13:29:29;21.40;99.70
14409;DHT22;7289;50.706;4.992;2022-09-09T13:32:04;21.40;98.70
14409;DHT22;7289;50.706;4.992;2022-09-09T13:34:34;21.70;98.00
14409;DHT22;7289;50.706;4.992;2022-09-09T13:37:04;21.80;97.90
14409;DHT22;7289;50.706;4.992;2022-09-09T13:39:35;21.90;97.60
14409;DHT22;7289;50.706;4.992;2022-09-09T13:42:19;21.90;97.30
14409;DHT22;7289;50.706;4.992;2022-09-09T13:44:49;21.90;97.00
14409;DHT22;7289;50.706;4.992;2022-09-09T13:47:19;22.20;97.70
14409;DHT22;7289;50.706;4.992;2022-09-09T13:49:48;22.30;97.40
14409;DHT22;7289;50.706;4.992;2022-09-09T13:52:17;22.30;96.70
14409;DHT22;7289;50.706;4.992;2022-09-09T13:54:48;22.40;96.30
14409;DHT22;7289;50.706;4.992;2022-09-09T13:57:20;22.50;95.80
14409;DHT22;7289;50.706;4.992;2022-09-09T13:59:49;22.50;95.90
14409;DHT22;7289;50.706;4.992;2022-09-09T14:02:31;22.20;94.90
14409;DHT22;7289;50.706;4.992;2022-09-09T14:05:00;22.30;95.90
14409;DHT22;7289;50.706;4.992;2022-09-09T14:07:28;22.20;95.70
14409;DHT22;7289;50.706;4.992;2022-09-09T14:09:57;21.90;94.80
14409;DHT22;7289;50.706;4.992;2022-09-09T14:12:28;21.80;95.70
14409;DHT22;7289;50.706;4.992;2022-09-09T14:14:56;21.60;95.50
14409;DHT22;7289;50.706;4.992;2022-09-09T14:17:26;21.60;96.20
14409;DHT22;7289;50.706;4.992;2022-09-09T14:19:58;21.60;96.60
14409;DHT22;7289;50.706;4.992;2022-09-09T14:22:26;21.80;97.20
14409;DHT22;7289;50.706;4.992;2022-09-09T14:24:55;21.90;96.40
14409;DHT22;7289;50.706;4.992;2022-09-09T14:27:24;21.90;96.20
14409;DHT22;7289;50.706;4.992;2022-09-09T14:29:54;22.00;96.20
14409;DHT22;7289;50.706;4.992;2022-09-09T14:32:23;21.80;96.20
14409;DHT22;7289;50.706;4.992;2022-09-09T14:34:51;21.60;96.50
14409;DHT22;7289;50.706;4.992;2022-09-09T14:37:19;21.60;96.50
14409;DHT22;7289;50.706;4.992;2022-09-09T14:39:48;21.70;96.70
14409;DHT22;7289;50.706;4.992;2022-09-09T14:42:17;21.60;96.40
14409;DHT22;7289;50.706;4.992;2022-09-09T14:44:45;21.50;98.00
14409;DHT22;7289;50.706;4.992;2022-09-09T14:47:16;21.60;98.40
14409;DHT22;7289;50.706;4.992;2022-09-09T14:49:44;21.80;96.70
14409;DHT22;7289;50.706;4.992;2022-09-09T14:52:13;22.00;96.20
14409;DHT22;7289;50.706;4.992;2022-09-09T14:54:41;22.00;95.50
14409;DHT22;7289;50.706;4.992;2022-09-09T14:57:09;21.90;95.80
14409;DHT22;7289;50.706;4.992;2022-09-09T14:59:38;21.90;96.30
14409;DHT22;7289;50.706;4.992;2022-09-09T15:02:08;21.80;96.30
14409;DHT22;7289;50.706;4.992;2022-09-09T15:04:38;21.90;96.50
14409;DHT22;7289;50.706;4.992;2022-09-09T15:07:06;21.90;96.40
14409;DHT22;7289;50.706;4.992;2022-09-09T15:09:34;22.00;96.40
14409;DHT22;7289;50.706;4.992;2022-09-09T15:12:04;22.00;96.50
14409;DHT22;7289;50.706;4.992;2022-09-09T15:14:32;22.10;95.70
14409;DHT22;7289;50.706;4.992;2022-09-09T15:17:02;22.10;95.90
14409;DHT22;7289;50.706;4.992;2022-09-09T15:19:30;22.10;95.70
14409;DHT22;7289;50.706;4.992;2022-09-09T15:22:00;22.20;96.10
14409;DHT22;7289;50.706;4.992;2022-09-09T15:24:28;22.50;95.80
14409;DHT22;7289;50.706;4.992;2022-09-09T15:26:56;22.60;94.70
14409;DHT22;7289;50.706;4.992;2022-09-09T15:29:25;22.70;94.70
14409;DHT22;7289;50.706;4.992;2022-09-09T15:31:53;22.50;94.70
14409;DHT22;7289;50.706;4.992;2022-09-09T15:34:22;22.50;95.40
14409;DHT22;7289;50.706;4.992;2022-09-09T15:36:50;22.40;96.10
14409;DHT22;7289;50.706;4.992;2022-09-09T15:39:19;22.20;96.30
14409;DHT22;7289;50.706;4.992;2022-09-09T15:41:48;21.90;95.90
14409;DHT22;7289;50.706;4.992;2022-09-09T15:44:18;21.50;96.60
14409;DHT22;7289;50.706;4.992;2022-09-09T15:46:49;21.20;97.10
14409;DHT22;7289;50.706;4.992;2022-09-09T15:49:19;21.10;97.50
14409;DHT22;7289;50.706;4.992;2022-09-09T15:51:51;20.90;97.80
14409;DHT22;7289;50.706;4.992;2022-09-09T15:54:23;20.70;98.10
14409;DHT22;7289;50.706;4.992;2022-09-09T15:56:53;20.60;98.20
14409;DHT22;7289;50.706;4.992;2022-09-09T15:59:23;20.50;98.30
14409;DHT22;7289;50.706;4.992;2022-09-09T16:01:52;20.50;98.70
14409;DHT22;7289;50.706;4.992;2022-09-09T16:04:21;20.40;98.90
14409;DHT22;7289;50.706;4.992;2022-09-09T16:06:51;20.40;98.80
14409;DHT22;7289;50.706;4.992;2022-09-09T16:09:21;20.40;99.10
14409;DHT22;7289;50.706;4.992;2022-09-09T16:11:49;20.50;99.00
14409;DHT22;7289;50.706;4.992;2022-09-09T16:14:20;20.50;99.10
14409;DHT22;7289;50.706;4.992;2022-09-09T16:16:48;20.60;99.00
14409;DHT22;7289;50.706;4.992;2022-09-09T16:19:16;20.60;98.80
14409;DHT22;7289;50.706;4.992;2022-09-09T16:21:47;20.70;99.00
14409;DHT22;7289;50.706;4.992;2022-09-09T16:24:18;20.70;99.20
14409;DHT22;7289;50.706;4.992;2022-09-09T16:26:50;20.80;98.20
14409;DHT22;7289;50.706;4.992;2022-09-09T16:29:19;20.80;98.10
14409;DHT22;7289;50.706;4.992;2022-09-09T16:31:49;20.80;97.70
14409;DHT22;7289;50.706;4.992;2022-09-09T16:34:18;20.80;97.50